Time;durP1;ratioP1;P1;durP2;ratioP2;P2;SDS_P1;SDS_P2;PMS_P1;PMS_P2;Temp;Humidity;BMP_temperature;BMP_pressure;BME280_temperature;BME280_humidity;BME280_pressure;Samples;Min_cycle;Max_cycle;Signal;HPM_P1;HPM_P2
2022/07/27 00:02:24;;;;;;;;;;;;;;;17.57;51.27;101359.25;5012618;28;20462;-57
2022/07/27 00:04:50;;;;;;;;;;;;;;;17.58;51.25;101360.94;5029987;28;19917;-56
2022/07/27 00:07:15;;;;;;;;;;;;;;;17.62;51.15;101367.69;5040305;28;19920;-55
2022/07/27 00:09:40;;;;;;;;;;;;;;;17.61;51.13;101362.50;5023650;28;19920;-57
2022/07/27 00:12:06;;;;;;;;;;;;;;;17.54;51.19;101354.16;5021833;28;19956;-56
2022/07/27 00:14:31;;;;;;;;;;;;;;;17.51;51.08;101357.91;5027828;28;19920;-56
2022/07/27 00:16:56;;;;;;;;;;;;;;;17.54;50.99;101359.47;5022291;28;19928;-56
2022/07/27 00:19:22;;;;;;;;;;;;;;;17.57;51.04;101364.56;5027028;28;19920;-55
2022/07/27 00:21:48;;;;;;;;;;;;;;;17.56;51.09;101362.00;5024283;28;20277;-55
2022/07/27 00:24:13;;;;;;;;;;;;;;;17.58;51.03;101357.41;5028094;28;19917;-56
2022/07/27 00:26:38;;;;;;;;;;;;;;;17.57;50.87;101364.56;5026997;28;19917;-55
2022/07/27 00:29:04;;;;;;;;;;;;;;;17.59;50.87;101362.63;5026317;28;19979;-55
2022/07/27 00:31:29;;;;;;;;;;;;;;;17.58;50.57;101366.25;5027679;28;20411;-55
2022/07/27 00:33:54;;;;;;;;;;;;;;;17.56;50.76;101365.53;5030003;28;19917;-56
2022/07/27 00:36:20;;;;;;;;;;;;;;;17.52;50.86;101364.91;5026540;28;19929;-58
2022/07/27 00:38:45;;;;;;;;;;;;;;;17.50;50.84;101363.31;5028406;28;19924;-56
2022/07/27 00:41:10;;;;;;;;;;;;;;;17.47;50.76;101360.94;5020157;28;20410;-56
2022/07/27 00:43:52;;;;;;;;;;;;;;;17.49;50.82;101366.94;5031582;28;20437;-57
2022/07/27 00:46:17;;;;;;;;;;;;;;;17.51;50.57;101365.03;5024014;28;19917;-55
2022/07/27 00:48:42;;;;;;;;;;;;;;;17.53;50.46;101363.09;5022507;28;19928;-55
2022/07/27 00:51:08;;;;;;;;;;;;;;;17.55;50.39;101376.25;5018919;28;19920;-56
2022/07/27 00:53:34;;;;;;;;;;;;;;;17.50;50.34;101374.84;5025746;28;19932;-55
2022/07/27 00:55:59;;;;;;;;;;;;;;;17.51;50.40;101375.66;5024226;28;19936;-55
2022/07/27 00:58:25;;;;;;;;;;;;;;;17.54;50.27;101385.25;5031706;28;19912;-55
2022/07/27 01:00:51;;;;;;;;;;;;;;;17.52;50.31;101377.34;5022970;28;19913;-55
2022/07/27 01:03:16;;;;;;;;;;;;;;;17.56;50.13;101375.31;5025080;28;19931;-55
2022/07/27 01:05:41;;;;;;;;;;;;;;;17.57;49.99;101384.97;5020374;28;20558;-55
2022/07/27 01:08:10;;;;;;;;;;;;;;;17.56;50.01;101381.50;5023365;28;19921;-55
2022/07/27 01:10:36;;;;;;;;;;;;;;;17.55;49.95;101381.59;5030036;28;19924;-55
2022/07/27 01:13:02;;;;;;;;;;;;;;;17.56;49.95;101383.28;5016802;28;19925;-55
2022/07/27 01:15:27;;;;;;;;;;;;;;;17.57;49.78;101382.31;5011776;28;19921;-55
2022/07/27 01:17:52;;;;;;;;;;;;;;;17.61;49.80;101379.31;5015509;28;19928;-55
2022/07/27 01:20:18;;;;;;;;;;;;;;;17.64;49.58;101383.56;5028488;28;20381;-55
2022/07/27 01:22:43;;;;;;;;;;;;;;;17.63;49.54;101380.03;5021659;28;19914;-55
2022/07/27 01:25:09;;;;;;;;;;;;;;;17.63;49.51;101385.34;5023279;28;19925;-55
2022/07/27 01:27:34;;;;;;;;;;;;;;;17.59;49.62;101386.56;5014207;28;19935;-55
2022/07/27 01:29:59;;;;;;;;;;;;;;;17.57;49.71;101380.53;5018673;28;19933;-55
2022/07/27 01:32:25;;;;;;;;;;;;;;;17.51;49.84;101380.97;5029712;28;19935;-55
2022/07/27 01:34:50;;;;;;;;;;;;;;;17.45;50.03;101382.31;5024168;28;19921;-55
2022/07/27 01:37:15;;;;;;;;;;;;;;;17.42;50.00;101377.22;5017357;28;20393;-55
2022/07/27 01:39:41;;;;;;;;;;;;;;;17.36;50.31;101375.88;5015373;28;19920;-55
2022/07/27 01:42:06;;;;;;;;;;;;;;;17.28;50.33;101375.63;5020892;28;20070;-55
2022/07/27 01:44:31;;;;;;;;;;;;;;;17.24;50.50;101371.50;5021916;28;19913;-57
2022/07/27 01:46:57;;;;;;;;;;;;;;;17.21;50.46;101380.56;5022563;28;19921;-56
2022/07/27 01:49:22;;;;;;;;;;;;;;;17.17;50.59;101371.13;5022089;28;19913;-55
2022/07/27 01:51:48;;;;;;;;;;;;;;;17.15;50.70;101381.03;5017962;28;19921;-55
2022/07/27 01:54:13;;;;;;;;;;;;;;;17.14;50.60;101373.19;5021614;28;19919;-55
2022/07/27 01:56:39;;;;;;;;;;;;;;;17.11;50.67;101370.75;5023644;28;20000;-55
2022/07/27 01:59:04;;;;;;;;;;;;;;;17.12;50.75;101369.78;5023152;28;19921;-55
2022/07/27 02:01:30;;;;;;;;;;;;;;;17.10;50.64;101374.38;5019885;28;19923;-55
2022/07/27 02:03:55;;;;;;;;;;;;;;;17.11;50.59;101368.09;5025038;28;19913;-55
2022/07/27 02:06:20;;;;;;;;;;;;;;;17.10;50.58;101361.06;5025641;28;20299;-55
2022/07/27 02:08:46;;;;;;;;;;;;;;;17.06;50.60;101371.94;5023936;28;19947;-55
2022/07/27 02:13:55;;;;;;;;;;;;;;;16.82;50.79;101366.59;5018752;28;20015;-55
2022/07/27 02:16:20;;;;;;;;;;;;;;;16.72;50.91;101368.25;5022410;28;20015;-55
2022/07/27 02:18:46;;;;;;;;;;;;;;;16.65;51.05;101362.56;5030406;28;20382;-55
2022/07/27 02:21:12;;;;;;;;;;;;;;;16.65;50.97;101362.56;5034447;28;19913;-56
2022/07/27 02:23:38;;;;;;;;;;;;;;;16.64;50.93;101363.50;5030817;28;20387;-56
2022/07/27 02:26:04;;;;;;;;;;;;;;;16.64;50.68;101363.50;5026780;28;19931;-56
2022/07/27 02:28:30;;;;;;;;;;;;;;;16.64;50.69;101357.38;5030273;28;19925;-55
2022/07/27 02:30:55;;;;;;;;;;;;;;;16.64;50.69;101360.84;5017082;28;19927;-55
2022/07/27 02:33:20;;;;;;;;;;;;;;;16.60;50.65;101354.94;5024717;28;19916;-55
2022/07/27 02:35:46;;;;;;;;;;;;;;;16.61;50.64;101361.06;5022436;28;19960;-56
2022/07/27 02:38:11;;;;;;;;;;;;;;;16.61;50.56;101364.59;5023560;28;19917;-56
2022/07/27 02:40:36;;;;;;;;;;;;;;;16.58;50.68;101361.28;5023013;28;20482;-56
2022/07/27 02:43:02;;;;;;;;;;;;;;;16.57;50.65;101354.28;5022250;28;20415;-60
2022/07/27 02:45:27;;;;;;;;;;;;;;;16.56;50.66;101363.25;5026319;28;19927;-56
2022/07/27 02:47:52;;;;;;;;;;;;;;;16.55;50.53;101364.19;5031665;28;19916;-56
2022/07/27 02:50:18;;;;;;;;;;;;;;;16.53;50.59;101368.78;5022608;28;21095;-57
2022/07/27 02:52:43;;;;;;;;;;;;;;;16.49;50.49;101364.63;5019335;28;19921;-56
2022/07/27 02:55:09;;;;;;;;;;;;;;;16.43;50.58;101364.13;5029353;28;19959;-56
2022/07/27 02:57:36;;;;;;;;;;;;;;;16.37;50.89;101361.06;5024527;28;20339;-55
2022/07/27 03:00:05;;;;;;;;;;;;;;;16.35;50.91;101360.31;5021004;28;19912;-55
2022/07/27 03:02:31;;;;;;;;;;;;;;;16.33;51.01;101367.56;5022307;28;20407;-55
2022/07/27 03:04:56;;;;;;;;;;;;;;;16.29;51.18;101366.91;5021048;28;19912;-55
2022/07/27 03:07:21;;;;;;;;;;;;;;;16.26;51.17;101372.47;5028305;28;19913;-55
2022/07/27 03:09:47;;;;;;;;;;;;;;;16.22;51.16;101366.53;5018864;28;19917;-55
2022/07/27 03:12:12;;;;;;;;;;;;;;;16.18;51.26;101374.81;5024205;28;19917;-55
2022/07/27 03:14:37;;;;;;;;;;;;;;;16.17;51.40;101373.97;5031588;28;19932;-55
2022/07/27 03:17:02;;;;;;;;;;;;;;;16.17;51.50;101367.81;5022717;28;19995;-55
2022/07/27 03:19:28;;;;;;;;;;;;;;;16.18;51.51;101370.38;5022974;28;19933;-56
2022/07/27 03:21:53;;;;;;;;;;;;;;;16.15;51.65;101366.13;5016450;28;19917;-56
2022/07/27 03:24:18;;;;;;;;;;;;;;;16.12;51.60;101368.97;5022684;28;19925;-55
2022/07/27 03:26:45;;;;;;;;;;;;;;;16.13;51.71;101373.34;5017342;28;19928;-55
2022/07/27 03:29:12;;;;;;;;;;;;;;;16.12;51.78;101373.44;5023180;28;20379;-55
2022/07/27 03:31:37;;;;;;;;;;;;;;;16.10;51.82;101373.56;5019875;28;19981;-55
2022/07/27 03:34:02;;;;;;;;;;;;;;;16.04;51.84;101370.47;5022557;28;19998;-55
2022/07/27 03:36:27;;;;;;;;;;;;;;;16.00;52.00;101372.50;5021570;28;19927;-55
2022/07/27 03:38:53;;;;;;;;;;;;;;;15.97;52.02;101375.38;5017728;28;20615;-55
2022/07/27 03:41:18;;;;;;;;;;;;;;;15.96;52.05;101374.53;5022059;28;19932;-54
2022/07/27 03:43:43;;;;;;;;;;;;;;;15.96;52.04;101381.63;5020655;28;20067;-54
2022/07/27 03:46:09;;;;;;;;;;;;;;;15.96;51.87;101373.69;5025845;28;19999;-55
2022/07/27 03:48:34;;;;;;;;;;;;;;;15.97;52.05;101378.91;5032095;28;20055;-55
2022/07/27 03:51:00;;;;;;;;;;;;;;;15.98;51.92;101379.72;5026046;28;19956;-57
2022/07/27 03:53:25;;;;;;;;;;;;;;;15.98;52.09;101385.03;5026146;28;19936;-56
2022/07/27 03:55:51;;;;;;;;;;;;;;;15.99;51.96;101376.97;5023514;28;19931;-55
2022/07/27 03:58:16;;;;;;;;;;;;;;;16.00;51.91;101378.69;5014802;28;19923;-55
2022/07/27 04:00:43;;;;;;;;;;;;;;;16.04;51.80;101371.34;5025415;28;20390;-55
2022/07/27 04:03:08;;;;;;;;;;;;;;;16.05;51.74;101375.69;5023416;28;19999;-56
2022/07/27 04:05:33;;;;;;;;;;;;;;;16.07;51.71;101380.88;5028431;28;20019;-55
2022/07/27 04:07:59;;;;;;;;;;;;;;;16.11;51.64;101375.25;5016044;28;19917;-55
2022/07/27 04:10:24;;;;;;;;;;;;;;;16.10;51.76;101381.53;5027689;28;20493;-56
2022/07/27 04:12:49;;;;;;;;;;;;;;;16.13;51.74;101378.63;5028225;28;19983;-55
2022/07/27 04:15:15;;;;;;;;;;;;;;;16.14;51.81;101379.50;5023160;28;19921;-55
2022/07/27 04:17:40;;;;;;;;;;;;;;;16.17;51.81;101381.09;5030832;28;19916;-55
2022/07/27 04:20:06;;;;;;;;;;;;;;;16.20;51.85;101383.53;5023507;28;19924;-56
2022/07/27 04:22:32;;;;;;;;;;;;;;;16.19;51.91;101387.13;5023896;28;19912;-55
2022/07/27 04:24:57;;;;;;;;;;;;;;;16.16;51.83;101385.56;5027836;28;19921;-56
2022/07/27 04:27:22;;;;;;;;;;;;;;;16.09;52.09;101390.47;5024033;28;19917;-55
2022/07/27 04:29:47;;;;;;;;;;;;;;;16.05;52.09;101388.97;5031331;28;19947;-54
2022/07/27 04:32:13;;;;;;;;;;;;;;;16.05;52.22;101386.31;5024514;28;19917;-57
2022/07/27 04:34:38;;;;;;;;;;;;;;;16.09;52.15;101384.28;5019584;28;20011;-55
2022/07/27 04:37:04;;;;;;;;;;;;;;;16.11;52.12;101387.69;5023896;28;19921;-55
2022/07/27 04:39:30;;;;;;;;;;;;;;;16.12;52.24;101387.56;5028705;28;19921;-55
2022/07/27 04:41:55;;;;;;;;;;;;;;;16.11;52.20;101383.22;5018930;28;19920;-55
2022/07/27 04:44:20;;;;;;;;;;;;;;;16.10;52.31;101386.84;5026743;28;19924;-55
2022/07/27 04:46:46;;;;;;;;;;;;;;;16.11;52.31;101385.88;5025317;28;19932;-56
2022/07/27 04:49:12;;;;;;;;;;;;;;;16.13;52.30;101383.13;5020442;28;20051;-56
2022/07/27 04:51:37;;;;;;;;;;;;;;;16.19;52.44;101387.97;5028503;28;20287;-56
2022/07/27 04:54:02;;;;;;;;;;;;;;;16.24;52.26;101391.16;5028743;28;19921;-56
2022/07/27 04:56:28;;;;;;;;;;;;;;;16.25;52.25;101394.69;5029212;28;19920;-56
2022/07/27 04:58:54;;;;;;;;;;;;;;;16.26;52.44;101399.03;5018340;28;19931;-55
2022/07/27 05:01:19;;;;;;;;;;;;;;;16.26;52.40;101383.09;5019433;28;19920;-55
2022/07/27 05:03:44;;;;;;;;;;;;;;;16.27;52.39;101384.78;5021660;28;19921;-54
2022/07/27 05:06:10;;;;;;;;;;;;;;;16.26;52.42;101391.06;5013966;28;20457;-56
2022/07/27 05:08:35;;;;;;;;;;;;;;;16.24;52.41;101385.84;5015884;28;19929;-55
2022/07/27 05:11:00;;;;;;;;;;;;;;;16.24;52.58;101387.66;5020998;28;19917;-55
2022/07/27 05:13:25;;;;;;;;;;;;;;;16.20;52.68;101383.53;5021204;28;19928;-55
2022/07/27 05:15:51;;;;;;;;;;;;;;;16.15;52.86;101397.13;5019578;28;19917;-56
2022/07/27 05:18:17;;;;;;;;;;;;;;;16.13;52.90;101394.56;5016707;28;19921;-56
2022/07/27 05:20:43;;;;;;;;;;;;;;;16.10;53.00;101389.50;5015319;28;19921;-58
2022/07/27 05:23:08;;;;;;;;;;;;;;;16.10;53.13;101399.25;5021106;28;20507;-56
2022/07/27 05:25:33;;;;;;;;;;;;;;;16.10;53.12;101394.81;5020878;28;19964;-58
2022/07/27 05:27:59;;;;;;;;;;;;;;;16.12;53.05;101400.00;5018138;28;19925;-55
2022/07/27 05:30:24;;;;;;;;;;;;;;;16.12;53.05;101398.19;5019745;28;20305;-57
2022/07/27 05:32:50;;;;;;;;;;;;;;;16.11;52.86;101400.97;5022433;28;19994;-54
2022/07/27 05:35:15;;;;;;;;;;;;;;;16.11;52.99;101398.31;5026230;28;19921;-56
2022/07/27 05:37:41;;;;;;;;;;;;;;;16.13;53.04;101401.69;5027815;28;19917;-57
2022/07/27 05:40:07;;;;;;;;;;;;;;;16.17;52.94;101408.50;5024435;28;19917;-56
2022/07/27 05:42:32;;;;;;;;;;;;;;;16.19;52.95;101406.56;5038940;28;20319;-54
2022/07/27 05:44:57;;;;;;;;;;;;;;;16.26;53.07;101404.34;5032082;28;19928;-56
2022/07/27 05:47:23;;;;;;;;;;;;;;;16.27;52.79;101406.00;5027393;28;19917;-56
2022/07/27 05:49:48;;;;;;;;;;;;;;;16.32;52.90;101409.19;5025471;28;19917;-54
2022/07/27 05:52:14;;;;;;;;;;;;;;;16.37;52.67;101420.34;5045461;22;19956;-54
2022/07/27 05:54:40;;;;;;;;;;;;;;;16.40;52.48;101413.97;5068391;28;19959;-52
2022/07/27 05:57:05;;;;;;;;;;;;;;;16.40;52.67;101412.16;5064967;28;19995;-52
2022/07/27 05:59:31;;;;;;;;;;;;;;;16.43;52.58;101422.53;5059253;28;20325;-53
2022/07/27 06:01:57;;;;;;;;;;;;;;;16.45;52.65;101414.47;5054774;28;20371;-52
2022/07/27 06:04:23;;;;;;;;;;;;;;;16.48;52.52;101424.91;5044121;28;19967;-53
2022/07/27 06:09:32;;;;;;;;;;;;;;;16.56;52.46;101424.34;5047375;28;19951;-52
2022/07/27 06:11:58;;;;;;;;;;;;;;;16.58;52.33;101409.97;5053429;28;19944;-52
2022/07/27 06:14:23;;;;;;;;;;;;;;;16.65;52.18;101415.69;5050632;28;20015;-53
2022/07/27 06:16:48;;;;;;;;;;;;;;;16.72;52.06;101408.94;5050841;28;20406;-52
2022/07/27 06:19:14;;;;;;;;;;;;;;;16.76;52.01;101418.41;5055115;28;19917;-53
2022/07/27 06:21:39;;;;;;;;;;;;;;;16.82;51.91;101421.59;5050461;28;19959;-52
2022/07/27 06:24:04;;;;;;;;;;;;;;;16.85;51.83;101432.00;5044752;28;19927;-53
2022/07/27 06:26:30;;;;;;;;;;;;;;;16.86;51.73;101423.91;5041535;28;20011;-52
2022/07/27 06:28:57;;;;;;;;;;;;;;;16.88;51.64;101426.44;5051555;28;19916;-55
2022/07/27 06:31:24;;;;;;;;;;;;;;;16.91;51.67;101443.03;5037137;28;19921;-51
2022/07/27 06:33:49;;;;;;;;;;;;;;;16.92;51.55;101420.81;5039514;28;21430;-51
2022/07/27 06:36:15;;;;;;;;;;;;;;;16.95;51.37;101433.03;5042596;28;20007;-52
2022/07/27 06:38:40;;;;;;;;;;;;;;;17.03;51.37;101435.13;5036412;28;19921;-53
2022/07/27 06:41:05;;;;;;;;;;;;;;;17.10;51.21;101427.53;5023021;28;19924;-54
2022/07/27 06:43:31;;;;;;;;;;;;;;;17.17;50.96;101428.75;5036964;28;20361;-52
2022/07/27 06:45:59;;;;;;;;;;;;;;;17.18;50.87;101447.28;5037667;28;19920;-54
2022/07/27 06:48:25;;;;;;;;;;;;;;;17.17;50.91;101448.25;5050528;28;19966;-55
2022/07/27 06:50:51;;;;;;;;;;;;;;;17.16;50.79;101433.25;5048092;28;19912;-55
2022/07/27 06:53:16;;;;;;;;;;;;;;;17.15;50.98;101436.03;5052071;28;20286;-54
2022/07/27 06:55:42;;;;;;;;;;;;;;;17.17;51.02;101437.59;5034295;28;19978;-52
2022/07/27 06:58:07;;;;;;;;;;;;;;;17.23;50.89;101441.59;5032023;28;20394;-53
2022/07/27 07:00:33;;;;;;;;;;;;;;;17.24;50.80;101445.97;5051115;28;19916;-54
2022/07/27 07:03:02;;;;;;;;;;;;;;;17.26;50.76;101440.53;5055984;28;20010;-55
2022/07/27 07:05:28;;;;;;;;;;;;;;;17.32;50.91;101440.06;5052994;28;19913;-55
2022/07/27 07:07:54;;;;;;;;;;;;;;;17.36;50.85;101444.22;5054829;28;20034;-52
2022/07/27 07:10:20;;;;;;;;;;;;;;;17.38;50.87;101450.25;5053801;28;19999;-55
2022/07/27 07:12:45;;;;;;;;;;;;;;;17.41;50.73;101438.53;5051241;28;20035;-55
2022/07/27 07:15:12;;;;;;;;;;;;;;;17.44;50.59;101443.63;5050389;28;20367;-53
2022/07/27 07:17:37;;;;;;;;;;;;;;;17.46;50.45;101444.38;5047872;28;20585;-52
2022/07/27 07:20:03;;;;;;;;;;;;;;;17.48;50.59;101461.03;5058566;28;19920;-53
2022/07/27 07:22:28;;;;;;;;;;;;;;;17.51;50.51;101451.03;5054289;28;19920;-54
2022/07/27 07:24:54;;;;;;;;;;;;;;;17.53;50.55;101442.91;5052362;28;19923;-55
2022/07/27 07:27:22;;;;;;;;;;;;;;;17.55;50.24;101458.75;5051047;28;19916;-54
2022/07/27 07:29:48;;;;;;;;;;;;;;;17.57;50.46;101444.38;5052697;28;19917;-53
2022/07/27 07:32:13;;;;;;;;;;;;;;;17.64;50.26;101445.59;5050370;28;19935;-55
2022/07/27 07:34:38;;;;;;;;;;;;;;;17.68;50.16;101447.06;5052051;28;19917;-53
2022/07/27 07:37:04;;;;;;;;;;;;;;;17.73;49.89;101451.19;5055389;28;19928;-54
2022/07/27 07:39:29;;;;;;;;;;;;;;;17.78;49.98;101449.88;5055255;28;20008;-51
2022/07/27 07:41:54;;;;;;;;;;;;;;;17.90;49.88;101456.06;5052689;28;19966;-54
2022/07/27 07:44:19;;;;;;;;;;;;;;;17.94;49.74;101452.16;5055592;28;20362;-53
2022/07/27 07:46:45;;;;;;;;;;;;;;;17.97;49.44;101456.44;5052709;28;19917;-54
2022/07/27 07:49:10;;;;;;;;;;;;;;;17.94;49.48;101457.50;5056153;28;19927;-54
2022/07/27 07:51:35;;;;;;;;;;;;;;;17.93;49.21;101460.28;5050314;28;19913;-51
2022/07/27 07:54:01;;;;;;;;;;;;;;;17.91;49.16;101465.75;5049698;28;19970;-50
2022/07/27 07:56:26;;;;;;;;;;;;;;;17.90;49.14;101455.19;5051967;28;19916;-51
2022/07/27 07:58:51;;;;;;;;;;;;;;;17.93;49.31;101454.97;5056206;28;20371;-52
2022/07/27 08:01:17;;;;;;;;;;;;;;;17.97;48.99;101451.97;5051333;28;19916;-52
2022/07/27 08:03:42;;;;;;;;;;;;;;;18.04;48.78;101467.47;5050552;28;19919;-50
2022/07/27 08:06:07;;;;;;;;;;;;;;;18.05;48.19;101471.84;5047734;28;19920;-54
2022/07/27 08:08:33;;;;;;;;;;;;;;;18.03;47.76;101460.47;5055255;28;19916;-52
2022/07/27 08:10:58;;;;;;;;;;;;;;;18.04;47.56;101467.47;5050259;28;19935;-52
2022/07/27 08:13:23;;;;;;;;;;;;;;;18.07;47.34;101456.59;5050376;28;19995;-52
2022/07/27 08:15:49;;;;;;;;;;;;;;;18.10;46.78;101461.66;5057043;28;19916;-54
2022/07/27 08:18:15;;;;;;;;;;;;;;;18.08;46.61;101464.44;5051067;28;19963;-52
2022/07/27 08:20:40;;;;;;;;;;;;;;;18.10;46.51;101467.84;5053047;28;19944;-53
2022/07/27 08:23:06;;;;;;;;;;;;;;;18.09;45.46;101459.97;5046971;28;19917;-54
2022/07/27 08:25:31;;;;;;;;;;;;;;;18.09;45.72;101460.81;5052434;28;19965;-52
2022/07/27 08:27:57;;;;;;;;;;;;;;;18.15;45.79;101456.00;5052654;28;19925;-55
2022/07/27 08:30:23;;;;;;;;;;;;;;;18.24;45.68;101464.06;5044418;28;20015;-52
2022/07/27 08:32:53;;;;;;;;;;;;;;;18.32;45.58;101449.31;5053497;28;19959;-52
2022/07/27 08:35:19;;;;;;;;;;;;;;;18.38;45.37;101470.13;5055227;28;19956;-53
2022/07/27 08:37:44;;;;;;;;;;;;;;;18.38;44.96;101470.13;5046418;28;19951;-52
2022/07/27 08:40:10;;;;;;;;;;;;;;;18.40;45.02;101469.06;5053208;28;19982;-53
2022/07/27 08:42:35;;;;;;;;;;;;;;;18.46;44.87;101469.50;5052939;28;20323;-52
2022/07/27 08:45:00;;;;;;;;;;;;;;;18.50;44.87;101474.50;5056957;28;19957;-52
2022/07/27 08:47:26;;;;;;;;;;;;;;;18.55;45.17;101484.78;5046486;28;19928;-55
2022/07/27 08:49:52;;;;;;;;;;;;;;;18.57;45.07;101472.19;5048969;28;20007;-56
2022/07/27 08:52:18;;;;;;;;;;;;;;;18.59;44.87;101500.41;5044384;28;19917;-53
2022/07/27 08:54:44;;;;;;;;;;;;;;;18.57;44.31;101478.34;5051508;28;20386;-54
2022/07/27 08:57:10;;;;;;;;;;;;;;;18.54;44.49;101486.59;5045939;28;20003;-56
2022/07/27 08:59:35;;;;;;;;;;;;;;;18.50;44.65;101482.50;5050051;28;20543;-55
2022/07/27 09:02:01;;;;;;;;;;;;;;;18.49;44.58;101495.91;5051568;28;19967;-55
2022/07/27 09:04:26;;;;;;;;;;;;;;;18.46;44.83;101501.50;5049468;28;19923;-57
2022/07/27 09:06:51;;;;;;;;;;;;;;;18.45;44.66;101497.16;5047724;28;20442;-55
2022/07/27 09:09:18;;;;;;;;;;;;;;;18.44;45.19;101490.97;5048694;28;19917;-52
2022/07/27 09:12:00;;;;;;;;;;;;;;;18.47;45.14;101493.41;5043890;28;19913;-51
2022/07/27 09:14:29;;;;;;;;;;;;;;;18.52;45.01;101487.69;5055804;28;19991;-52
2022/07/27 09:16:54;;;;;;;;;;;;;;;18.57;45.06;101491.69;5046132;28;19982;-51
2022/07/27 09:19:20;;;;;;;;;;;;;;;18.62;44.96;101487.81;5056225;28;19963;-52
2022/07/27 09:21:45;;;;;;;;;;;;;;;18.68;45.08;101490.00;5051715;28;20024;-53
2022/07/27 09:24:12;;;;;;;;;;;;;;;18.71;45.03;101487.06;5039045;28;20276;-53
2022/07/27 09:26:37;;;;;;;;;;;;;;;18.76;45.27;101492.88;5047710;28;19924;-52
2022/07/27 09:29:03;;;;;;;;;;;;;;;18.78;45.16;101490.94;5051071;28;19919;-53
2022/07/27 09:31:28;;;;;;;;;;;;;;;18.80;45.18;101494.31;5049427;28;19981;-53
2022/07/27 09:34:01;;;;;;;;;;;;;;;18.87;45.23;101487.50;5053654;28;19915;-53
2022/07/27 09:36:27;;;;;;;;;;;;;;;18.97;45.33;101478.81;5052597;28;20069;-54
2022/07/27 09:38:58;;;;;;;;;;;;;;;19.08;45.08;101494.78;5054330;28;19913;-55
2022/07/27 09:41:23;;;;;;;;;;;;;;;19.12;44.76;101490.88;5052664;28;19912;-55
2022/07/27 09:43:53;;;;;;;;;;;;;;;19.13;44.57;101491.72;5051958;28;19921;-52
2022/07/27 09:46:28;;;;;;;;;;;;;;;19.15;44.49;101482.59;5050872;28;19962;-51
2022/07/27 09:48:54;;;;;;;;;;;;;;;19.17;44.25;101491.34;5043596;28;19924;-53
2022/07/27 09:51:19;;;;;;;;;;;;;;;19.21;44.11;101486.56;5051620;28;19920;-51
2022/07/27 09:53:45;;;;;;;;;;;;;;;19.24;43.82;101483.66;5051621;28;19924;-53
2022/07/27 09:56:12;;;;;;;;;;;;;;;19.28;43.77;101494.94;5049974;28;19916;-53
2022/07/27 09:58:40;;;;;;;;;;;;;;;19.26;43.06;101496.91;5052263;28;19917;-52
2022/07/27 10:01:06;;;;;;;;;;;;;;;19.23;43.20;101486.47;5038109;28;19921;-51
2022/07/27 10:03:31;;;;;;;;;;;;;;;19.21;43.13;101485.75;5049787;28;19916;-53
2022/07/27 10:05:57;;;;;;;;;;;;;;;19.21;43.15;101485.75;5054133;28;19919;-54
2022/07/27 10:08:23;;;;;;;;;;;;;;;19.24;43.36;101483.66;5051899;28;19948;-53
2022/07/27 10:10:48;;;;;;;;;;;;;;;19.30;42.95;101471.63;5054258;28;19933;-56
2022/07/27 10:13:13;;;;;;;;;;;;;;;19.39;43.06;101480.69;5053751;28;19966;-54
2022/07/27 10:15:39;;;;;;;;;;;;;;;19.43;43.22;101485.66;5039449;28;20390;-54
2022/07/27 10:18:09;;;;;;;;;;;;;;;19.44;42.86;101479.31;5048525;28;20015;-56
2022/07/27 10:20:36;;;;;;;;;;;;;;;19.47;43.13;101489.75;5052308;28;19913;-55
2022/07/27 10:23:02;;;;;;;;;;;;;;;19.48;42.65;101479.94;5051568;28;19912;-54
2022/07/27 10:25:29;;;;;;;;;;;;;;;19.48;42.85;101486.09;5054129;28;20321;-57
2022/07/27 10:28:08;;;;;;;;;;;;;;;19.47;42.90;101478.25;5049188;28;19959;-51
2022/07/27 10:30:33;;;;;;;;;;;;;;;19.45;42.73;101489.03;5049087;28;19959;-56
2022/07/27 10:33:01;;;;;;;;;;;;;;;19.44;42.87;101492.66;5050030;28;19916;-52
2022/07/27 10:35:30;;;;;;;;;;;;;;;19.40;42.55;101493.91;5052357;28;20377;-51
2022/07/27 10:38:07;;;;;;;;;;;;;;;19.39;42.88;101494.91;5050107;28;19927;-51
2022/07/27 10:40:35;;;;;;;;;;;;;;;19.39;43.17;101496.69;5051748;28;19916;-51
2022/07/27 10:43:17;;;;;;;;;;;;;;;19.38;42.67;101500.34;5047917;28;20401;-51
2022/07/27 10:45:44;;;;;;;;;;;;;;;19.33;42.65;101495.41;5048375;28;19909;-54
2022/07/27 10:48:29;;;;;;;;;;;;;;;19.31;42.88;101492.00;5057887;28;19974;-53
2022/07/27 10:50:54;;;;;;;;;;;;;;;19.29;43.06;101496.63;5051576;28;20026;-57
2022/07/27 10:53:30;;;;;;;;;;;;;;;19.30;43.03;101487.63;5054182;28;20031;-52
2022/07/27 10:55:56;;;;;;;;;;;;;;;19.35;42.99;101493.44;5052843;28;19921;-52
2022/07/27 10:58:22;;;;;;;;;;;;;;;19.38;42.57;101495.88;5053165;28;19920;-53
2022/07/27 11:00:48;;;;;;;;;;;;;;;19.36;42.78;101484.47;5035537;28;19928;-55
2022/07/27 11:03:20;;;;;;;;;;;;;;;19.34;43.13;101487.28;5048671;28;19913;-55
2022/07/27 11:05:54;;;;;;;;;;;;;;;19.32;43.19;101489.22;5054345;28;20426;-54
2022/07/27 11:08:30;;;;;;;;;;;;;;;19.32;43.08;101493.69;5058551;28;20294;-52
2022/07/27 11:10:56;;;;;;;;;;;;;;;19.33;42.81;101496.25;5053666;28;20276;-54
2022/07/27 11:13:22;;;;;;;;;;;;;;;19.36;42.91;101492.47;5034309;28;19935;-55
2022/07/27 11:15:53;;;;;;;;;;;;;;;19.38;43.06;101495.88;5054508;28;19921;-55
2022/07/27 11:18:35;;;;;;;;;;;;;;;19.44;42.81;101495.34;5051574;28;19916;-54
2022/07/27 11:21:19;;;;;;;;;;;;;;;19.46;42.98;101487.22;5052775;28;19963;-55
2022/07/27 11:23:45;;;;;;;;;;;;;;;19.55;42.95;101488.28;5046500;28;19928;-54
2022/07/27 11:26:11;;;;;;;;;;;;;;;19.63;43.00;101477.78;5055817;28;19962;-53
2022/07/27 11:28:37;;;;;;;;;;;;;;;19.69;42.93;101487.09;5052736;28;19956;-55
2022/07/27 11:31:02;;;;;;;;;;;;;;;19.75;42.67;101487.41;5052050;28;19917;-54
2022/07/27 11:33:28;;;;;;;;;;;;;;;19.80;42.65;101482.53;5060573;28;19908;-54
2022/07/27 11:35:54;;;;;;;;;;;;;;;19.82;42.42;101478.88;5056996;28;21437;-52
2022/07/27 11:38:20;;;;;;;;;;;;;;;19.85;42.73;101475.97;5053153;28;19972;-51
2022/07/27 11:40:52;;;;;;;;;;;;;;;19.89;42.39;101483.59;5052960;28;19917;-53
2022/07/27 11:43:35;;;;;;;;;;;;;;;19.92;42.27;101477.13;5056719;28;19959;-52
2022/07/27 11:46:11;;;;;;;;;;;;;;;19.92;42.23;101482.47;5051975;28;19912;-52
2022/07/27 11:48:36;;;;;;;;;;;;;;;19.92;42.45;101488.69;5054713;28;20349;-55
2022/07/27 11:51:02;;;;;;;;;;;;;;;19.91;42.29;101480.78;5030582;28;20382;-54
2022/07/27 11:53:27;;;;;;;;;;;;;;;19.91;41.98;101499.47;5056845;28;19920;-55
2022/07/27 11:55:53;;;;;;;;;;;;;;;19.90;42.17;101485.28;5053939;28;19919;-55
2022/07/27 11:58:18;;;;;;;;;;;;;;;19.88;41.71;101491.75;5052865;28;19913;-58
2022/07/27 12:00:44;;;;;;;;;;;;;;;19.88;41.76;101481.06;5041941;28;20375;-58
2022/07/27 12:03:19;;;;;;;;;;;;;;;19.91;41.85;101475.44;5051287;28;20007;-52
2022/07/27 12:05:48;;;;;;;;;;;;;;;19.99;41.92;101485.47;5054002;28;19917;-57
2022/07/27 12:08:15;;;;;;;;;;;;;;;20.05;41.39;101477.78;5050926;28;19908;-54
2022/07/27 12:10:57;;;;;;;;;;;;;;;20.08;41.22;101480.19;5032463;28;19919;-54
2022/07/27 12:13:30;;;;;;;;;;;;;;;20.10;40.82;101480.91;5053392;28;19983;-56
2022/07/27 12:15:56;;;;;;;;;;;;;;;20.13;41.19;101485.13;5052526;28;19919;-56
2022/07/27 12:18:21;;;;;;;;;;;;;;;20.19;40.74;101483.75;5057811;28;19924;-56
2022/07/27 12:20:47;;;;;;;;;;;;;;;20.23;41.02;101493.19;5057424;28;20324;-55
2022/07/27 12:23:12;;;;;;;;;;;;;;;20.26;40.62;101482.22;5051418;28;19909;-55
2022/07/27 12:25:39;;;;;;;;;;;;;;;20.31;40.71;101485.34;5053568;28;19931;-57
2022/07/27 12:28:04;;;;;;;;;;;;;;;20.37;40.53;101481.31;5054149;28;19966;-58
2022/07/27 12:30:37;;;;;;;;;;;;;;;20.42;40.45;101489.75;5033425;28;19916;-55
2022/07/27 12:33:04;;;;;;;;;;;;;;;20.50;40.52;101486.38;5052559;28;19971;-55
2022/07/27 12:35:31;;;;;;;;;;;;;;;20.54;40.34;101477.13;5042284;28;19917;-58
2022/07/27 12:38:01;;;;;;;;;;;;;;;20.61;40.04;101483.63;5039100;28;20030;-52